Columbus, KS (66725)

12:03 AM CST on March 02, 2015 (GMT -0600)
ESE Cherokee Co Kansas | Change Station
CLOSE
Current Station
Personal Weather Station
Location: Columbus, KS
Elevation: 951 ft
Nearby Weather Stations

Elev 951 ft 37.15 °N, 94.72 °W | Updated 6 minutes ago

Partly Cloudy
Partly Cloudy
25.2 °F
Feels Like 25 °F
N
0.0
Wind Variable Wind from ENE
Gusts 3.0 mph

Today
High -- | Low -- °F
--% Chance of Precip.
Yesterday
High -- | Low -- °F
Precip. -- in
6:49 AM 6:14 PM
Waxing Gibbous, 89% visible
Pressure 30.52 in
Visibility 7.0 miles
Clouds Clear
Windchill 25 °F
Dew Point 22 °F
Humidity 89%
Rainfall 0.00 in
Snow Depth Not available.
UV 0 out of 12
Pollen .60 out of 12
Air Quality Not available.
Flu Activity Not available.
METAR KJLN 020553Z AUTO 07003KT 7SM CLR M04/M07 A3049 RMK AO2 SLP334 T10441072 11011 21044 400061044 50015

More Conditions Fewer Conditions

Pressure 30.52 in
Visibility 7.0 miles
Clouds Clear
Windchill 25 °F
Dew Point 22 °F
Humidity 89%
Rainfall 0.00 in
Snow Depth Not available.
UV 0 out of 12
Pollen .60 out of 12
Air Quality Not available.
Flu Activity Not available.
METAR KJLN 020553Z AUTO 07003KT 7SM CLR M04/M07 A3049 RMK AO2 SLP334 T10441072 11011 21044 400061044 50015

More Conditions Fewer Conditions

10-Day Weather Forecast

Almanac

Astronomy

Mar. 02, 2015 Rise Set
Actual Time
Civil Twilight
Nautical Twilight
Astronomical Twilight
Moon
Length of Visible Light
Length of Day
Tomorrow will be .
, % of the Moon is Illuminated

Today's Extremes

State Highs State Lows

Community

WunderPhotos

Upload Photos

1,801,738 photos uploaded!

WunderBlogs® & News

Nearby

Air Quality

  Air Quality AQ Index Pollutant
Not available.

Snow Depth

Station Depth Elevation

Earthquake Activity

City Distance Mag. Time & Date
Minimum magnitude displayed is 2.5.

Coastal Water Temperatures

Place Temperature

Nearby Weather Stations